Time;durP1;ratioP1;P1;durP2;ratioP2;P2;SDS_P1;SDS_P2;PMS_P1;PMS_P2;Temp;Humidity;BMP_temperature;BMP_pressure;BME280_temperature;BME280_humidity;BME280_pressure;Samples;Min_cycle;Max_cycle;Signal;HPM_P1;HPM_P2
2022/06/24 00:01:03;;;;;;;3.85;2.33;;;;;;;18.15;65.93;101030.72;10487807;28;20052;-84
2022/06/24 00:06:16;;;;;;;4.97;2.47;;;;;;;18.17;66.88;101025.66;10450924;28;20048;-85
2022/06/24 00:11:26;;;;;;;2.47;2.15;;;;;;;18.16;66.91;101031.56;10484285;28;20052;-85
2022/06/24 00:16:28;;;;;;;2.58;2.15;;;;;;;18.12;67.25;101048.06;10469235;28;20049;-84
2022/06/24 00:21:30;;;;;;;3.70;2.15;;;;;;;17.97;67.76;101040.16;10483903;28;20044;-85
2022/06/24 00:26:38;;;;;;;2.38;2.17;;;;;;;17.93;68.71;101045.53;10451901;28;20048;-86
2022/06/24 00:31:40;;;;;;;4.55;2.55;;;;;;;18.07;68.57;101049.03;10427021;28;20037;-86
2022/06/24 00:36:43;;;;;;;4.88;2.20;;;;;;;17.91;69.08;101052.56;10463344;28;20414;-86
2022/06/24 00:41:51;;;;;;;3.30;2.30;;;;;;;18.04;69.20;101060.75;10483142;28;20056;-86
2022/06/24 00:46:57;;;;;;;3.22;2.58;;;;;;;18.03;68.88;101052.75;10483471;28;20041;-86
2022/06/24 00:52:07;;;;;;;4.32;2.75;;;;;;;18.16;68.87;101064.88;10451084;28;20045;-86
2022/06/24 00:57:10;;;;;;;3.30;2.47;;;;;;;18.06;69.17;101061.28;10484809;28;20051;-86
2022/06/24 01:02:16;;;;;;;3.70;1.90;;;;;;;18.11;69.29;101051.16;10448893;28;20037;-86
2022/06/24 01:07:18;;;;;;;2.70;2.38;;;;;;;17.97;69.87;101060.41;10486702;28;20049;-87
2022/06/24 01:12:20;;;;;;;3.38;2.28;;;;;;;17.90;70.44;101068.41;10483201;28;20041;-87
2022/06/24 01:17:23;;;;;;;3.08;2.10;;;;;;;17.83;70.99;101058.88;10468824;28;20415;-86
2022/06/24 01:22:26;;;;;;;2.63;2.17;;;;;;;17.82;71.07;101065.56;10482792;28;20033;-85
2022/06/24 01:27:29;;;;;;;2.80;2.13;;;;;;;17.81;71.30;101061.97;10468330;28;20053;-84
2022/06/24 01:32:31;;;;;;;3.05;2.28;;;;;;;17.83;71.79;101064.41;10466030;28;20053;-85
2022/06/24 01:37:33;;;;;;;4.38;3.20;;;;;;;17.78;71.75;101063.44;10468101;28;20041;-86
2022/06/24 01:42:36;;;;;;;4.95;2.40;;;;;;;17.83;71.63;101062.47;10429895;28;20045;-86
2022/06/24 01:47:38;;;;;;;3.67;2.03;;;;;;;17.91;71.03;101069.22;10490554;28;20053;-86
2022/06/24 01:52:40;;;;;;;2.33;2.13;;;;;;;17.85;71.48;101071.28;10492302;28;20049;-86
2022/06/24 01:57:43;;;;;;;5.00;2.15;;;;;;;18.05;71.63;101069.94;10473660;28;20064;-86
2022/06/24 02:02:45;;;;;;;2.88;2.13;;;;;;;18.17;70.57;101078.44;10480349;28;20052;-85
2022/06/24 02:07:47;;;;;;;3.88;2.38;;;;;;;17.97;71.05;101079.84;10458278;28;20057;-87
2022/06/24 02:18:10;;;;;;;2.08;1.80;;;;;;;18.33;70.43;101082.41;10469513;28;20052;-88
2022/06/24 02:23:13;;;;;;;2.70;1.75;;;;;;;18.59;69.53;101081.69;10461057;28;20048;-88
2022/06/24 02:28:16;;;;;;;2.78;1.85;;;;;;;18.73;69.09;101082.38;10490396;28;20522;-86
2022/06/24 02:33:18;;;;;;;1.90;1.55;;;;;;;19.08;68.24;101085.97;10470175;28;20038;-87
2022/06/24 02:38:20;;;;;;;2.90;1.90;;;;;;;19.08;68.05;101083.19;10483322;28;20059;-87
2022/06/24 02:43:28;;;;;;;2.40;1.45;;;;;;;19.59;66.14;101087.09;10477779;28;20041;-87
2022/06/24 02:48:32;;;;;;;2.97;1.60;;;;;;;19.62;65.79;101088.44;10475528;28;20055;-86
2022/06/24 02:53:35;;;;;;;1.50;1.38;;;;;;;19.63;64.92;101090.06;10484160;28;20044;-87
2022/06/24 02:58:38;;;;;;;1.38;1.15;;;;;;;19.93;64.31;101088.97;10463055;28;20562;-87
2022/06/24 03:03:40;;;;;;;1.75;1.20;;;;;;;20.16;63.21;101084.78;10457194;28;20056;-86
2022/06/24 03:08:43;;;;;;;2.28;1.00;;;;;;;20.27;63.16;101096.34;10481305;28;20411;-90
2022/06/24 03:13:45;;;;;;;1.55;1.15;;;;;;;20.56;62.02;101094.75;10479983;28;20048;-90
2022/06/24 03:18:47;;;;;;;2.22;1.30;;;;;;;20.85;61.54;101097.53;10487781;28;20041;-91
2022/06/24 03:23:50;;;;;;;1.75;1.23;;;;;;;21.14;60.03;101098.59;10490193;28;20041;-90
2022/06/24 03:28:52;;;;;;;1.92;1.40;;;;;;;21.19;60.06;101101.22;10466722;28;20049;-91
2022/06/24 03:33:55;;;;;;;1.70;1.08;;;;;;;21.75;58.73;101105.28;10482752;28;20037;-91
2022/06/24 03:38:57;;;;;;;1.50;1.02;;;;;;;21.60;57.91;101117.09;10464319;28;20052;-91
2022/06/24 03:44:00;;;;;;;1.38;1.27;;;;;;;21.32;59.03;101117.69;10486084;28;20559;-90
2022/06/24 03:49:02;;;;;;;2.47;1.10;;;;;;;21.65;58.48;101114.06;10483412;28;20041;-91
2022/06/24 03:54:05;;;;;;;0.85;0.82;;;;;;;22.11;56.06;101109.31;10481520;28;20041;-91
2022/06/24 03:59:33;;;;;;;1.90;0.98;;;;;;;22.33;55.36;101111.66;10452120;28;20044;-89
2022/06/24 04:04:35;;;;;;;1.15;0.95;;;;;;;22.67;54.39;101120.75;10444340;28;20036;-88
2022/06/24 04:09:37;;;;;;;1.20;0.90;;;;;;;23.44;52.08;101124.31;10485407;28;20076;-89
2022/06/24 04:20:01;;;;;;;2.45;0.85;;;;;;;23.73;51.89;101118.34;10466998;28;20045;-88
2022/06/24 04:25:04;;;;;;;1.45;0.80;;;;;;;24.06;50.22;101132.03;10463665;28;20060;-88
2022/06/24 04:30:09;;;;;;;1.38;1.15;;;;;;;24.17;50.26;101135.13;10457826;28;20056;-87
2022/06/24 04:35:11;;;;;;;0.90;0.88;;;;;;;23.84;51.85;101140.25;10476648;28;20029;-89
2022/06/24 04:40:13;;;;;;;1.95;1.30;;;;;;;23.57;52.32;101141.88;10469910;28;20048;-89
2022/06/24 04:45:16;;;;;;;1.83;1.48;;;;;;;23.13;53.09;101141.81;10479402;28;20045;-89
2022/06/24 04:50:18;;;;;;;4.35;1.08;;;;;;;23.35;52.44;101152.47;10432919;28;20080;-89
2022/06/24 04:55:21;;;;;;;1.25;1.15;;;;;;;23.74;51.02;101148.00;10434209;28;20049;-89
2022/06/24 05:00:23;;;;;;;1.67;1.30;;;;;;;23.72;51.33;101153.16;10486869;28;20446;-88
2022/06/24 05:05:25;;;;;;;2.10;1.13;;;;;;;24.00;50.76;101155.09;10435452;28;20041;-88
2022/06/24 05:10:28;;;;;;;2.47;1.00;;;;;;;24.30;49.39;101161.13;10482111;28;20049;-89
2022/06/24 05:15:30;;;;;;;1.58;0.90;;;;;;;24.39;49.42;101166.56;10457456;28;20052;-88
2022/06/24 05:20:32;;;;;;;4.88;1.40;;;;;;;25.08;48.18;101173.47;10466094;28;20040;-89
2022/06/24 05:25:35;;;;;;;1.27;1.17;;;;;;;25.01;47.32;101162.06;10447975;28;20053;-90
2022/06/24 05:30:37;;;;;;;1.05;0.85;;;;;;;25.68;45.02;101168.34;10446146;28;20065;-90
2022/06/24 05:35:39;;;;;;;1.48;1.05;;;;;;;25.92;43.76;101172.84;10449009;28;20072;-89
2022/06/24 05:40:41;;;;;;;1.02;0.90;;;;;;;25.85;44.26;101176.31;10492978;28;20060;-91
2022/06/24 05:45:45;;;;;;;2.75;1.08;;;;;;;25.45;44.55;101177.47;10480688;28;20053;-90
2022/06/24 05:50:47;;;;;;;2.63;1.30;;;;;;;25.58;45.40;101174.53;10476857;28;20511;-90
2022/06/24 05:55:49;;;;;;;2.58;0.80;;;;;;;26.30;43.95;101171.91;10481735;28;20143;-89
2022/06/24 06:00:54;;;;;;;3.17;0.90;;;;;;;26.22;44.68;101189.88;10475745;28;20049;-90
2022/06/24 06:05:56;;;;;;;6.20;1.77;;;;;;;26.90;43.01;101189.84;10485113;28;20036;-90
2022/06/24 06:10:59;;;;;;;1.05;0.95;;;;;;;27.04;42.69;101192.06;10450087;28;20052;-90
2022/06/24 06:16:01;;;;;;;1.13;1.02;;;;;;;27.40;41.35;101192.56;10482383;28;20038;-89
2022/06/24 06:21:05;;;;;;;1.08;0.73;;;;;;;27.13;41.74;101194.63;10441908;28;20411;-91
2022/06/24 06:26:09;;;;;;;1.80;1.10;;;;;;;27.07;41.99;101202.56;10480062;28;20500;-89
2022/06/24 06:31:11;;;;;;;2.50;1.05;;;;;;;27.29;40.67;101196.06;10452100;28;20049;-89
2022/06/24 06:36:15;;;;;;;1.95;0.93;;;;;;;27.25;41.21;101195.22;10460688;28;20037;-92
2022/06/24 06:41:18;;;;;;;0.75;0.75;;;;;;;26.99;41.30;101192.38;10472965;28;20045;-90
2022/06/24 06:46:20;;;;;;;2.67;1.33;;;;;;;27.26;40.76;101193.22;10488719;28;20038;-90
2022/06/24 06:51:22;;;;;;;1.65;0.90;;;;;;;27.41;40.67;101191.38;10477451;28;20131;-91
2022/06/24 06:56:24;;;;;;;2.33;1.15;;;;;;;27.12;40.28;101182.53;10450414;28;20407;-90
2022/06/24 07:01:27;;;;;;;1.25;0.82;;;;;;;26.84;41.07;101173.63;10448626;28;20056;-90
2022/06/24 07:06:29;;;;;;;1.65;1.17;;;;;;;26.81;41.09;101171.56;10457449;28;20037;-91
2022/06/24 07:11:31;;;;;;;2.60;1.65;;;;;;;26.92;41.22;101184.63;10470223;28;20048;-91
2022/06/24 07:16:34;;;;;;;1.30;1.10;;;;;;;26.84;41.33;101190.53;10463706;28;20048;-84
2022/06/24 07:21:36;;;;;;;0.80;0.80;;;;;;;26.37;42.20;101183.31;10468556;28;20063;-83
2022/06/24 07:26:38;;;;;;;2.55;1.13;;;;;;;26.31;42.52;101196.06;10455339;28;20049;-81
2022/06/24 07:31:41;;;;;;;2.80;1.25;;;;;;;26.62;42.26;101198.63;10458325;28;20060;-83
2022/06/24 07:36:43;;;;;;;1.27;1.17;;;;;;;26.78;41.00;101206.13;10471983;28;20040;-84
2022/06/24 07:41:45;;;;;;;1.25;1.15;;;;;;;26.43;42.38;101201.53;10480861;28;20526;-83
2022/06/24 07:46:48;;;;;;;2.78;1.20;;;;;;;26.34;42.42;101200.91;10461359;28;20053;-86
2022/06/24 07:51:50;;;;;;;3.33;2.40;;;;;;;26.26;42.31;101204.81;10464174;28;20508;-84
2022/06/24 07:56:59;;;;;;;3.88;1.55;;;;;;;26.29;43.14;101215.31;10462490;28;20412;-80
2022/06/24 08:02:04;;;;;;;2.75;1.77;;;;;;;26.87;41.87;101220.75;10457762;28;20080;-87
2022/06/24 08:07:06;;;;;;;1.85;1.60;;;;;;;26.88;41.38;101223.19;10475471;28;20053;-90
2022/06/24 08:12:08;;;;;;;5.50;1.90;;;;;;;26.57;42.67;101217.84;10496319;28;20051;-87
2022/06/24 08:17:10;;;;;;;2.30;2.10;;;;;;;26.28;43.52;101219.31;10459566;28;20056;-84
2022/06/24 08:22:13;;;;;;;3.92;2.03;;;;;;;26.18;43.45;101225.53;10484095;28;20040;-88
2022/06/24 08:27:15;;;;;;;4.50;1.90;;;;;;;26.38;43.90;101221.53;10485922;28;20419;-88
2022/06/24 08:32:18;;;;;;;3.10;2.10;;;;;;;26.53;42.81;101216.97;10468938;28;20045;-88
2022/06/24 08:37:20;;;;;;;3.78;1.60;;;;;;;26.71;42.19;101210.44;10464528;28;20519;-88
2022/06/24 08:42:27;;;;;;;2.60;1.85;;;;;;;26.87;42.61;101226.38;10487135;28;20053;-88
2022/06/24 08:47:29;;;;;;;6.85;2.05;;;;;;;26.55;42.79;101221.03;10486923;28;20127;-89
2022/06/24 08:52:31;;;;;;;3.83;1.60;;;;;;;26.48;42.18;101215.28;10469577;28;20449;-88
2022/06/24 08:57:34;;;;;;;2.75;1.70;;;;;;;27.09;41.49;101225.56;10450998;28;20041;-88
2022/06/24 09:02:36;;;;;;;3.55;1.75;;;;;;;27.28;40.84;101219.81;10453436;28;20048;-88
2022/06/24 09:07:38;;;;;;;2.20;1.70;;;;;;;26.63;41.29;101219.97;10467303;28;20053;-88
2022/06/24 09:12:43;;;;;;;1.67;1.58;;;;;;;26.25;42.79;101206.81;10447598;28;20059;-88
2022/06/24 09:17:46;;;;;;;1.75;1.52;;;;;;;26.39;41.95;101218.34;10485901;28;20041;-88
2022/06/24 09:22:49;;;;;;;2.30;1.52;;;;;;;26.13;42.39;101216.22;10486435;28;20049;-88
2022/06/24 09:27:52;;;;;;;2.03;1.65;;;;;;;26.03;42.79;101211.22;10480956;28;20049;-88
2022/06/24 09:32:55;;;;;;;4.53;2.33;;;;;;;25.37;43.94;101211.44;10427226;28;20057;-88
2022/06/24 09:37:58;;;;;;;4.03;2.05;;;;;;;24.84;44.94;101211.78;10426283;28;20042;-88
2022/06/24 09:43:05;;;;;;;2.15;1.90;;;;;;;24.39;45.56;101214.25;10444157;28;20504;-89
2022/06/24 09:48:08;;;;;;;2.60;1.88;;;;;;;24.22;46.38;101218.19;10454468;28;20515;-88
2022/06/24 09:53:11;;;;;;;4.45;2.15;;;;;;;24.18;47.02;101220.91;10442412;28;20052;-88
2022/06/24 09:58:14;;;;;;;1.85;1.65;;;;;;;24.28;47.09;101211.94;10426459;28;20046;-88
2022/06/24 10:03:17;;;;;;;2.03;1.80;;;;;;;24.28;47.47;101209.13;10435711;28;20041;-89
2022/06/24 10:08:21;;;;;;;1.80;1.48;;;;;;;24.21;47.84;101206.16;10485740;28;20076;-88
2022/06/24 10:13:26;;;;;;;2.70;1.80;;;;;;;24.18;48.28;101209.66;10484948;28;20049;-88
2022/06/24 10:18:48;;;;;;;2.33;1.58;;;;;;;23.97;47.06;101215.53;10455173;28;20053;-87
2022/06/24 10:23:51;;;;;;;2.22;1.60;;;;;;;23.89;47.64;101210.88;10458054;28;20331;-87
2022/06/24 10:29:03;;;;;;;1.88;1.50;;;;;;;23.81;47.68;101217.47;10492274;28;20419;-88
2022/06/24 10:34:05;;;;;;;1.70;1.60;;;;;;;23.99;46.51;101212.34;10492036;28;20048;-88
2022/06/24 10:39:15;;;;;;;2.45;1.70;;;;;;;23.95;46.69;101206.66;10457247;28;20049;-86
2022/06/24 10:44:31;;;;;;;1.85;1.70;;;;;;;24.06;45.89;101213.34;10492050;28;20057;-87
2022/06/24 10:49:51;;;;;;;1.42;1.33;;;;;;;24.05;45.99;101208.09;10491469;28;20044;-87
2022/06/24 11:00:24;;;;;;;4.10;2.15;;;;;;;23.89;47.70;101196.84;10486055;28;20127;-88
2022/06/24 11:05:30;;;;;;;4.25;1.80;;;;;;;23.80;47.52;101201.00;10490364;28;20052;-88
2022/06/24 11:10:33;;;;;;;3.80;1.97;;;;;;;23.78;48.45;101195.75;10490217;28;20052;-88
2022/06/24 11:15:45;;;;;;;3.72;1.98;;;;;;;23.89;47.56;101199.66;10485467;28;20491;-87
2022/06/24 11:20:54;;;;;;;2.35;2.15;;;;;;;24.00;47.93;101199.97;10468413;28;20039;-84
2022/06/24 11:25:59;;;;;;;8.18;1.92;;;;;;;24.05;48.39;101185.69;10489253;28;20045;-86
2022/06/24 11:31:24;;;;;;;3.58;2.30;;;;;;;24.03;48.32;101193.63;10485292;28;20041;-86
2022/06/24 11:36:27;;;;;;;3.55;2.40;;;;;;;24.07;48.19;101188.94;10489389;28;20037;-86
2022/06/24 11:41:31;;;;;;;4.68;2.20;;;;;;;24.21;48.71;101189.31;10486625;28;20504;-84
2022/06/24 11:46:34;;;;;;;7.60;2.70;;;;;;;24.17;48.30;101185.63;10449149;28;20041;-85
2022/06/24 11:51:36;;;;;;;3.50;2.30;;;;;;;24.00;48.38;101197.16;10443417;28;20049;-82
2022/06/24 11:56:40;;;;;;;4.40;2.38;;;;;;;24.05;48.28;101196.91;10486087;28;20044;-83
2022/06/24 12:01:42;;;;;;;4.18;2.60;;;;;;;24.06;49.37;101198.53;10478202;28;20041;-82
2022/06/24 12:06:45;;;;;;;3.90;2.83;;;;;;;24.02;49.09;101192.81;10460231;28;20040;-85
2022/06/24 12:11:49;;;;;;;2.75;2.53;;;;;;;23.94;49.23;101188.19;10470687;28;20041;-84
2022/06/24 12:17:08;;;;;;;5.63;2.90;;;;;;;24.02;49.09;101192.00;10483518;28;20044;-81
2022/06/24 12:22:18;;;;;;;2.90;2.50;;;;;;;23.98;49.25;101186.31;10465040;28;20040;-84
2022/06/24 12:27:20;;;;;;;4.97;2.88;;;;;;;23.89;49.95;101191.25;10463152;28;20048;-79
2022/06/24 12:32:23;;;;;;;5.70;2.88;;;;;;;23.84;50.98;101196.31;10476929;28;20041;-79
2022/06/24 12:37:25;;;;;;;4.85;2.53;;;;;;;23.80;50.17;101189.78;10429589;28;20052;-79
2022/06/24 12:42:27;;;;;;;3.58;2.50;;;;;;;23.80;50.05;101195.41;10462440;28;20061;-81
2022/06/24 12:53:08;;;;;;;6.32;2.75;;;;;;;23.88;49.40;101200.03;10405382;28;20052;-84
2022/06/24 12:58:10;;;;;;;5.07;3.13;;;;;;;23.85;49.23;101195.94;10467982;28;20223;-85
2022/06/24 13:03:16;;;;;;;3.28;2.97;;;;;;;23.83;49.47;101189.06;10477661;28;20039;-85
2022/06/24 13:08:20;;;;;;;3.72;2.92;;;;;;;23.76;49.55;101196.09;10472798;28;20076;-86
2022/06/24 13:13:22;;;;;;;4.43;2.55;;;;;;;23.67;49.49;101198.25;10476138;28;20059;-88
2022/06/24 13:18:25;;;;;;;4.18;2.70;;;;;;;23.67;49.62;101195.44;10464718;28;20562;-88
2022/06/24 13:23:27;;;;;;;2.92;2.08;;;;;;;23.69;49.88;101190.28;10475612;28;20041;-90
2022/06/24 13:28:29;;;;;;;4.60;2.50;;;;;;;23.70;49.62;101186.31;10483303;28;20056;-85
2022/06/24 13:33:32;;;;;;;3.85;2.80;;;;;;;23.80;49.95;101193.41;10481317;28;20601;-82
2022/06/24 13:38:34;;;;;;;3.35;2.28;;;;;;;23.86;50.03;101194.78;10455910;28;20048;-79
2022/06/24 13:43:37;;;;;;;6.57;2.28;;;;;;;23.92;49.76;101186.91;10482009;28;20511;-80
2022/06/24 13:48:39;;;;;;;4.63;2.33;;;;;;;23.93;50.04;101189.34;10478494;28;20423;-82
2022/06/24 13:53:41;;;;;;;5.70;2.60;;;;;;;23.94;49.86;101179.75;10471248;28;20040;-81
2022/06/24 13:58:45;;;;;;;5.28;2.50;;;;;;;23.88;49.88;101186.00;10486182;28;20045;-89
2022/06/24 14:03:48;;;;;;;7.68;2.70;;;;;;;23.82;50.17;101182.66;10487279;28;20445;-83
2022/06/24 14:08:50;;;;;;;4.15;2.08;;;;;;;23.72;49.83;101177.56;10489520;28;20048;-78
2022/06/24 14:13:52;;;;;;;2.35;1.92;;;;;;;23.68;50.38;101185.88;10485163;28;20050;-78
2022/06/24 14:18:55;;;;;;;3.42;2.50;;;;;;;23.67;49.03;101187.03;10489856;28;20068;-80
2022/06/24 14:29:18;;;;;;;2.20;1.90;;;;;;;23.56;49.17;101185.06;10460403;28;20037;-79
2022/06/24 14:34:21;;;;;;;2.75;2.28;;;;;;;23.55;48.69;101184.25;10454453;28;20042;-80
2022/06/24 14:44:44;;;;;;;3.33;2.03;;;;;;;23.36;48.73;101186.88;10470789;28;20029;-80
2022/06/24 14:49:46;;;;;;;4.07;2.15;;;;;;;23.37;49.44;101177.31;10466986;28;20064;-77
2022/06/24 14:54:49;;;;;;;2.78;2.15;;;;;;;23.31;48.55;101189.94;10457670;28;20447;-78
2022/06/24 14:59:51;;;;;;;3.70;1.98;;;;;;;23.19;49.33;101193.56;10452061;28;20037;-79
2022/06/24 15:04:53;;;;;;;2.33;2.10;;;;;;;23.16;49.84;101189.50;10483531;28;20044;-80
2022/06/24 15:09:55;;;;;;;2.30;1.45;;;;;;;23.16;49.03;101185.88;10487555;28;20400;-81
2022/06/24 15:14:58;;;;;;;7.35;2.40;;;;;;;23.14;48.52;101194.63;10488256;28;20439;-79
2022/06/24 15:20:00;;;;;;;2.42;2.13;;;;;;;23.12;48.84;101182.97;10485455;28;20049;-78
2022/06/24 15:25:04;;;;;;;5.90;2.85;;;;;;;23.04;48.15;101181.13;10484075;28;20037;-82
2022/06/24 15:30:07;;;;;;;2.13;1.75;;;;;;;22.95;47.42;101177.66;10489196;28;20060;-80
2022/06/24 15:35:10;;;;;;;2.13;1.55;;;;;;;22.91;47.40;101171.13;10468838;28;20041;-84
2022/06/24 15:40:12;;;;;;;2.22;1.70;;;;;;;22.97;47.72;101186.50;10468954;28;20431;-85
2022/06/24 15:45:15;;;;;;;2.00;1.52;;;;;;;22.88;47.42;101180.19;10487138;28;20032;-84
2022/06/24 15:50:17;;;;;;;2.30;1.83;;;;;;;22.85;47.04;101172.50;10486338;28;20103;-81
2022/06/24 15:55:19;;;;;;;1.40;1.30;;;;;;;22.73;46.89;101170.50;10465183;28;20040;-82
2022/06/24 16:00:22;;;;;;;3.47;1.30;;;;;;;22.67;46.54;101174.72;10484697;28;20491;-83
2022/06/24 16:05:24;;;;;;;5.05;1.60;;;;;;;22.61;45.52;101170.53;10435431;28;20036;-82
2022/06/24 16:10:26;;;;;;;1.98;1.20;;;;;;;22.55;44.67;101171.91;10484805;28;20443;-82
2022/06/24 16:15:29;;;;;;;1.48;1.02;;;;;;;22.47;43.85;101179.25;10462144;28;20036;-84
2022/06/24 16:20:31;;;;;;;1.98;1.15;;;;;;;22.51;42.90;101169.00;10484510;28;20032;-86
2022/06/24 16:30:54;;;;;;;3.53;1.75;;;;;;;22.50;43.30;101172.97;10480935;28;20041;-85
2022/06/24 16:35:57;;;;;;;1.77;1.17;;;;;;;22.49;42.92;101154.53;10476133;28;20037;-84
2022/06/24 16:40:59;;;;;;;2.42;1.73;;;;;;;22.50;42.26;101156.19;10456503;28;20063;-84
2022/06/24 16:46:05;;;;;;;2.38;1.95;;;;;;;22.45;42.39;101158.41;10467596;28;20040;-84
2022/06/24 16:51:11;;;;;;;1.55;0.93;;;;;;;22.40;41.10;101150.25;10458437;28;20095;-84
2022/06/24 16:56:13;;;;;;;1.33;0.93;;;;;;;22.34;40.95;101151.63;10484743;28;20044;-84
2022/06/24 17:01:16;;;;;;;1.95;0.90;;;;;;;22.38;40.43;101152.53;10476572;28;20040;-84
2022/06/24 17:06:18;;;;;;;1.77;0.90;;;;;;;22.42;40.19;101157.13;10484580;28;20067;-84
2022/06/24 17:11:20;;;;;;;1.33;0.95;;;;;;;22.53;40.32;101154.66;10484213;28;20075;-84
2022/06/24 17:16:23;;;;;;;3.85;1.33;;;;;;;22.55;39.72;101153.13;10483124;28;20044;-84
2022/06/24 17:21:25;;;;;;;0.90;0.80;;;;;;;22.51;39.33;101152.22;10472007;28;20041;-85
2022/06/24 17:26:27;;;;;;;2.75;0.70;;;;;;;22.45;38.87;101147.22;10438628;28;20028;-85
2022/06/24 17:31:30;;;;;;;0.63;0.60;;;;;;;22.50;38.61;101149.75;10511911;28;20392;-85
2022/06/24 17:36:32;;;;;;;1.02;0.88;;;;;;;22.47;39.01;101145.69;10495800;28;20527;-84
2022/06/24 17:41:34;;;;;;;1.50;1.05;;;;;;;22.43;39.21;101158.75;10444624;28;20041;-84
2022/06/24 17:46:37;;;;;;;1.05;0.90;;;;;;;22.36;40.76;101152.91;10458124;28;20057;-85
2022/06/24 17:51:39;;;;;;;1.90;1.00;;;;;;;22.21;42.76;101159.16;10506392;28;20049;-85
2022/06/24 17:56:41;;;;;;;2.08;1.23;;;;;;;21.92;44.15;101158.16;10487088;28;20048;-85
2022/06/24 18:01:44;;;;;;;1.58;1.15;;;;;;;21.65;45.33;101155.97;10511203;28;20048;-85
2022/06/24 18:06:46;;;;;;;3.20;1.30;;;;;;;21.53;46.71;101158.75;10493599;28;20033;-85
2022/06/24 18:11:48;;;;;;;1.70;1.17;;;;;;;21.48;47.42;101164.50;10476247;28;20056;-84
2022/06/24 18:16:51;;;;;;;3.55;1.50;;;;;;;21.42;47.90;101171.47;10479123;28;20079;-85
2022/06/24 18:21:53;;;;;;;3.33;1.50;;;;;;;21.46;48.43;101173.22;10496720;28;20439;-85
2022/06/24 18:26:57;;;;;;;1.58;1.45;;;;;;;21.45;48.90;101171.59;10494715;28;20045;-85
2022/06/24 18:32:00;;;;;;;3.50;2.00;;;;;;;21.45;50.06;101173.56;10491966;28;20407;-85
2022/06/24 18:37:03;;;;;;;4.38;2.50;;;;;;;21.20;50.83;101173.44;10493156;28;20040;-85
2022/06/24 18:42:05;;;;;;;4.07;1.75;;;;;;;21.07;51.19;101178.09;10478771;28;20051;-85
2022/06/24 18:47:07;;;;;;;5.72;1.88;;;;;;;20.97;51.74;101174.88;10470854;28;20037;-85
2022/06/24 18:52:10;;;;;;;2.50;1.77;;;;;;;20.76;51.89;101184.03;10483444;28;20049;-85
2022/06/24 18:57:12;;;;;;;3.30;1.45;;;;;;;20.64;52.63;101185.91;10494077;28;20033;-84
2022/06/24 19:02:14;;;;;;;2.70;1.95;;;;;;;20.55;52.67;101185.97;10495299;28;20048;-84
2022/06/24 19:07:17;;;;;;;2.03;1.70;;;;;;;20.49;53.18;101184.53;10474527;28;20051;-84
2022/06/24 19:12:19;;;;;;;2.38;1.73;;;;;;;20.44;52.98;101190.25;10504406;28;20522;-85
2022/06/24 19:17:21;;;;;;;2.17;1.98;;;;;;;20.41;53.65;101188.16;10496433;28;20043;-82
2022/06/24 19:22:24;;;;;;;4.50;2.17;;;;;;;20.42;53.52;101189.78;10514699;28;20055;-80
2022/06/24 19:27:26;;;;;;;3.28;2.03;;;;;;;20.42;53.86;101196.19;10495373;28;20045;-80
2022/06/24 19:32:28;;;;;;;8.98;2.20;;;;;;;20.45;54.09;101189.13;10491022;28;20049;-80
2022/06/24 19:37:33;;;;;;;4.15;2.50;;;;;;;20.39;54.69;101190.44;10489620;28;20033;-80
2022/06/24 19:42:35;;;;;;;3.42;2.47;;;;;;;20.26;55.54;101189.47;10498658;28;20060;-80
2022/06/24 19:47:37;;;;;;;5.50;2.67;;;;;;;20.14;55.77;101190.19;10485365;28;20044;-80
2022/06/24 19:52:40;;;;;;;5.63;2.58;;;;;;;20.13;55.64;101194.13;10518027;28;20048;-80
2022/06/24 19:57:42;;;;;;;5.07;3.40;;;;;;;20.07;56.29;101205.78;10512587;28;20057;-80
2022/06/24 20:08:05;;;;;;;5.60;3.03;;;;;;;19.75;57.41;101204.34;10504215;28;20048;-80
2022/06/24 20:13:08;;;;;;;2.92;2.53;;;;;;;19.64;58.46;101208.63;10487486;28;20045;-80
2022/06/24 20:18:10;;;;;;;3.72;2.92;;;;;;;19.65;58.56;101213.06;10501487;28;20049;-79
2022/06/24 20:23:14;;;;;;;4.55;2.40;;;;;;;19.61;59.04;101207.28;10483497;28;20037;-80
2022/06/24 20:28:16;;;;;;;3.28;2.10;;;;;;;19.48;58.97;101211.88;10468997;28;20495;-80
2022/06/24 20:33:19;;;;;;;5.03;2.13;;;;;;;19.52;59.79;101214.81;10472955;28;20029;-79
2022/06/24 20:38:22;;;;;;;6.40;2.50;;;;;;;19.58;59.59;101214.34;10442908;28;20048;-79
2022/06/24 20:43:26;;;;;;;6.13;3.25;;;;;;;19.62;60.31;101216.50;10458051;28;20049;-80
2022/06/24 20:48:28;;;;;;;5.80;3.13;;;;;;;19.61;60.48;101217.63;10486250;28;20056;-79
2022/06/24 20:53:31;;;;;;;2.97;2.28;;;;;;;19.65;60.17;101215.84;10477267;28;20538;-80
2022/06/24 20:58:35;;;;;;;5.50;2.92;;;;;;;19.75;60.12;101210.72;10488534;28;20044;-79
2022/06/24 21:03:37;;;;;;;6.45;3.08;;;;;;;19.89;59.97;101224.47;10489713;28;20041;-80
2022/06/24 21:08:40;;;;;;;4.35;2.97;;;;;;;19.77;60.35;101227.09;10486990;28;20045;-80
2022/06/24 21:13:42;;;;;;;5.78;2.88;;;;;;;19.73;60.15;101217.78;10493415;28;20515;-81
2022/06/24 21:18:45;;;;;;;5.40;2.70;;;;;;;19.87;59.80;101227.59;10486485;28;20059;-80
2022/06/24 21:23:49;;;;;;;4.20;2.50;;;;;;;19.93;59.58;101221.84;10512383;28;20045;-79
2022/06/24 21:28:51;;;;;;;3.42;2.20;;;;;;;20.00;59.60;101223.00;10518834;28;20044;-82
2022/06/24 21:33:53;;;;;;;3.80;2.40;;;;;;;20.11;59.02;101224.28;10486527;28;20047;-82
2022/06/24 21:38:56;;;;;;;4.05;2.75;;;;;;;20.18;59.03;101229.34;10506235;28;20067;-81
2022/06/24 21:43:59;;;;;;;8.60;4.22;;;;;;;20.15;59.14;101243.97;10475863;28;20049;-82
2022/06/24 21:49:02;;;;;;;7.57;4.40;;;;;;;20.11;59.58;101238.19;10465247;28;20467;-81
2022/06/24 21:54:04;;;;;;;8.90;4.55;;;;;;;20.18;59.51;101251.66;10489253;28;20404;-81
2022/06/24 21:59:06;;;;;;;9.55;4.90;;;;;;;20.13;59.56;101254.59;10482424;28;20049;-82
2022/06/24 22:04:08;;;;;;;8.10;4.90;;;;;;;20.13;59.80;101258.22;10496851;28;20454;-82
2022/06/24 22:09:12;;;;;;;8.85;4.60;;;;;;;20.15;59.52;101258.72;10526020;28;20036;-82
2022/06/24 22:14:14;;;;;;;5.25;3.65;;;;;;;20.15;59.67;101258.72;10509800;28;20051;-81
2022/06/24 22:19:17;;;;;;;6.28;3.53;;;;;;;20.17;59.22;101261.97;10518797;28;20508;-82
2022/06/24 22:24:19;;;;;;;5.22;3.45;;;;;;;20.17;59.16;101266.72;10503954;28;20044;-82
2022/06/24 22:29:21;;;;;;;5.70;3.30;;;;;;;20.09;59.80;101264.75;10486497;28;20036;-82
2022/06/24 22:34:23;;;;;;;4.45;3.15;;;;;;;20.00;59.52;101264.78;10521610;28;20521;-82
2022/06/24 22:39:26;;;;;;;5.22;3.33;;;;;;;;;;10482515;28;20053;-82
2022/06/24 22:44:28;;;;;;;4.78;2.85;;;;;;;19.98;59.67;101267.09;10499133;28;20496;-82
2022/06/24 22:49:30;;;;;;;5.60;3.15;;;;;;;19.97;59.73;101261.84;10490133;28;20087;-83
2022/06/24 22:54:32;;;;;;;5.55;3.42;;;;;;;20.06;59.25;101255.09;10449537;28;20052;-82
2022/06/24 22:59:36;;;;;;;5.00;2.88;;;;;;;20.12;59.33;101264.91;10491012;28;20049;-82
2022/06/24 23:04:38;;;;;;;6.10;3.47;;;;;;;20.01;59.00;101268.41;10489955;28;20053;-82
2022/06/24 23:09:40;;;;;;;4.15;2.88;;;;;;;19.94;59.29;101262.47;10488479;28;20048;-82
2022/06/24 23:14:43;;;;;;;4.50;2.63;;;;;;;19.73;59.23;101265.94;10487182;28;20047;-82
2022/06/24 23:19:45;;;;;;;5.22;2.97;;;;;;;19.65;59.96;101265.94;10484569;28;20148;-82
2022/06/24 23:24:47;;;;;;;4.95;2.75;;;;;;;19.74;59.52;101269.53;10470880;28;20060;-82
2022/06/24 23:29:50;;;;;;;4.90;3.00;;;;;;;19.80;59.79;101269.06;10489552;28;20041;-82
2022/06/24 23:34:53;;;;;;;4.88;2.92;;;;;;;19.61;60.19;101270.50;10488622;28;20040;-82
2022/06/24 23:39:56;;;;;;;5.97;2.78;;;;;;;19.55;61.04;101267.09;10486826;28;20089;-82
2022/06/24 23:44:58;;;;;;;3.20;2.28;;;;;;;19.52;61.22;101267.72;10489057;28;20037;-82
2022/06/24 23:55:21;;;;;;;4.07;2.90;;;;;;;19.57;61.32;101273.97;10477519;28;20487;-81
